createdAt,value
2018-11-02T10:20:53.665Z,57.7
2018-11-02T10:21:55.014Z,57.1
2018-11-02T10:22:56.637Z,57.2
2018-11-02T10:23:58.819Z,57.2
2018-11-02T10:25:00.995Z,57.2
2018-11-02T10:26:02.041Z,57.3
2018-11-02T10:27:03.691Z,57.7
2018-11-02T10:28:05.739Z,57.7
2018-11-02T10:29:06.837Z,57.2
2018-11-02T10:30:08.433Z,57.3
2018-11-02T10:31:09.790Z,57.2
2018-11-02T10:32:11.432Z,57.1
2018-11-02T10:33:13.530Z,57.2
2018-11-02T10:34:15.934Z,57
2018-11-02T10:35:18.287Z,57.1
2018-11-02T10:36:20.363Z,56.8
2018-11-02T10:37:22.294Z,56.9
2018-11-02T10:38:23.920Z,56.9
2018-11-02T10:39:25.932Z,57
2018-11-02T10:40:27.360Z,56.8
2018-11-02T10:41:28.959Z,56.9
2018-11-02T10:42:30.564Z,57
2018-11-02T10:43:31.917Z,56.9
2018-11-02T10:44:33.917Z,56.9
2018-11-02T10:45:35.894Z,56.9
2018-11-02T10:46:37.491Z,57.1
2018-11-02T10:47:38.812Z,56.7
2018-11-02T10:48:41.147Z,56.6
2018-11-02T10:49:43.052Z,56.7
2018-11-02T10:50:44.968Z,56.6
2018-11-02T10:51:46.934Z,56.8
2018-11-02T10:52:48.533Z,56.8
2018-11-02T10:53:49.880Z,56.4
2018-11-02T10:54:51.811Z,56.5
2018-11-02T10:55:53.135Z,56.8
2018-11-02T10:56:54.740Z,56.4
2018-11-02T10:57:56.064Z,56.5
2018-11-02T10:58:57.689Z,56.4
2018-11-02T10:59:59.318Z,56.3
2018-11-02T11:02:08.344Z,56.3
2018-11-02T11:03:10.401Z,56.2
2018-11-02T11:04:12.419Z,56.2
2018-11-02T11:05:14.151Z,56
2018-11-02T11:06:15.809Z,56.1
2018-11-02T11:07:17.733Z,56.1
2018-11-02T11:08:19.662Z,56
2018-11-02T11:09:21.558Z,55.8
2018-11-02T11:10:23.732Z,55.9
2018-11-02T11:11:25.692Z,55.9
2018-11-02T11:12:27.614Z,55.9
2018-11-02T11:13:30.904Z,55.8
2018-11-02T11:14:32.634Z,55.9
2018-11-02T11:15:34.309Z,55.8
2018-11-02T11:16:36.403Z,55.8
2018-11-02T11:17:37.754Z,55.6
2018-11-02T11:18:39.097Z,55.6
2018-11-02T11:19:40.712Z,55.5
2018-11-02T11:20:42.344Z,55.8
2018-11-02T11:21:43.972Z,55.8
2018-11-02T11:22:45.878Z,55.6
2018-11-02T11:23:47.503Z,55.6
2018-11-02T11:24:49.150Z,55.8
2018-11-02T11:25:50.790Z,55.8
2018-11-02T11:26:52.138Z,55.6
2018-11-02T11:27:53.487Z,55.7
2018-11-02T11:28:55.391Z,55.5
2018-11-02T11:29:57.362Z,55.6
2018-11-02T11:30:59.621Z,55.7
2018-11-02T11:32:01.698Z,55.5
2018-11-02T11:33:03.043Z,55.5
2018-11-02T11:34:04.396Z,55.5
2018-11-02T11:35:06.068Z,55.7
2018-11-02T11:36:07.967Z,55.6
2018-11-02T11:37:09.910Z,55.6
2018-11-02T11:38:11.873Z,55.7
2018-11-02T11:39:12.917Z,55.6
2018-11-02T11:40:14.826Z,55.2
2018-11-02T11:41:16.162Z,55.4
2018-11-02T11:42:17.518Z,55.2
2018-11-02T11:43:19.138Z,55.3
2018-11-02T11:44:21.076Z,55.2
2018-11-02T11:45:23.451Z,55.6
2018-11-02T11:46:25.056Z,55.5
2018-11-02T11:47:26.953Z,55.6
2018-11-02T11:48:28.400Z,55.3
2018-11-02T11:49:30.473Z,55.4
2018-11-02T11:50:32.089Z,55.4
2018-11-02T11:51:33.439Z,55.3
2018-11-02T11:52:35.345Z,55.4
2018-11-02T11:53:37.248Z,55.4
2018-11-02T11:54:39.420Z,55.5
2018-11-02T11:55:41.265Z,55.3
2018-11-02T11:56:43.161Z,55.5
2018-11-02T11:57:44.803Z,55.4
2018-11-02T11:58:47.196Z,55.5
2018-11-02T11:59:49.882Z,55.5
2018-11-02T12:00:51.513Z,55.3
2018-11-02T12:01:52.913Z,55.1
2018-11-02T12:02:54.823Z,55
2018-11-02T12:03:56.450Z,55
2018-11-02T12:04:58.288Z,55.4
2018-11-02T12:05:59.410Z,54.9
2018-11-02T12:07:00.799Z,55
2018-11-02T12:08:02.431Z,55.1
2018-11-02T12:09:03.198Z,54.9
2018-11-02T12:10:04.244Z,55.4
2018-11-02T12:11:05.634Z,55.3
2018-11-02T12:12:07.004Z,55.5
2018-11-02T12:13:08.932Z,55
2018-11-02T12:14:10.556Z,55.4
2018-11-02T12:15:12.180Z,55.3
2018-11-02T12:16:14.090Z,55.3
2018-11-02T12:17:15.723Z,55.1
2018-11-02T12:18:17.346Z,55.5
2018-11-02T12:19:18.962Z,55.4
2018-11-02T12:20:20.317Z,55.5
2018-11-02T12:21:21.945Z,55.4
2018-11-02T12:22:23.854Z,55.5
2018-11-02T12:23:25.197Z,55.4
2018-11-02T12:24:27.434Z,55.4
2018-11-02T12:25:28.764Z,55.5
2018-11-02T12:26:30.310Z,55.4
2018-11-02T12:27:31.906Z,55.3
2018-11-02T12:28:33.410Z,55.4
2018-11-02T12:29:35.170Z,55.7
2018-11-02T12:30:36.972Z,55.4
2018-11-02T12:31:38.747Z,55.4
2018-11-02T12:32:40.103Z,55.7
2018-11-02T12:33:42.007Z,55.6
2018-11-02T12:34:43.356Z,55.7
2018-11-02T12:35:44.977Z,55.6
2018-11-02T12:36:46.601Z,55.6
2018-11-02T12:37:48.270Z,55.6
2018-11-02T12:38:49.877Z,55.6
2018-11-02T12:39:51.684Z,55.8
2018-11-02T12:40:53.864Z,55.9
2018-11-02T12:41:55.482Z,56
2018-11-02T12:42:56.292Z,56
2018-11-02T12:43:57.900Z,55.9
2018-11-02T12:44:59.839Z,55.9
2018-11-02T12:46:01.447Z,56
2018-11-02T12:47:03.080Z,56.2
2018-11-02T12:48:05.127Z,56.3
2018-11-02T12:49:07.633Z,56.3
2018-11-02T12:50:09.364Z,56.5
2018-11-02T12:51:11.253Z,56.8
2018-11-02T12:52:12.581Z,56.7
2018-11-02T12:53:14.342Z,56.9
2018-11-02T12:54:15.673Z,56.7
2018-11-02T12:55:18.376Z,56.7
2018-11-02T12:56:20.271Z,56.5
2018-11-02T12:57:22.323Z,56.1
2018-11-02T12:58:24.427Z,56.2
2018-11-02T12:59:26.059Z,55.9
2018-11-02T13:00:27.680Z,56
2018-11-02T13:01:29.034Z,55.7
2018-11-02T13:02:30.655Z,55.6
2018-11-02T13:03:32.552Z,55.9
2018-11-02T13:04:34.154Z,55.3
2018-11-02T13:05:36.072Z,55.4
2018-11-02T13:06:37.971Z,55.4
2018-11-02T13:07:39.590Z,55.3
2018-11-02T13:08:41.814Z,55.3
2018-11-02T13:09:44.250Z,55.2
2018-11-02T13:10:45.295Z,55.4
2018-11-02T13:11:46.912Z,55.2
2018-11-02T13:12:48.839Z,55.5
2018-11-02T13:13:49.897Z,55.3
2018-11-02T13:14:51.795Z,55.1
2018-11-02T13:15:53.447Z,55.1
2018-11-02T13:16:55.821Z,55.5
2018-11-02T13:17:57.483Z,55.4
2018-11-02T13:18:58.994Z,55.3
2018-11-02T13:20:00.982Z,55.3
2018-11-02T13:21:03.176Z,55.2
2018-11-02T13:22:04.818Z,55.6
2018-11-02T13:23:06.406Z,55.7
2018-11-02T13:24:08.285Z,55.6
2018-11-02T13:25:09.930Z,56.1
2018-11-02T13:26:12.545Z,55.9
2018-11-02T13:27:14.884Z,56
2018-11-02T13:28:16.620Z,56.2
2018-11-02T13:29:18.318Z,56.1
2018-11-02T13:30:20.661Z,56.1
2018-11-02T13:31:23.773Z,56
2018-11-02T13:32:25.959Z,56.2
2018-11-02T13:33:27.571Z,56
2018-11-02T13:34:28.907Z,56.1
2018-11-02T13:35:30.525Z,56.2
2018-11-02T13:36:32.902Z,56.4
2018-11-02T13:37:34.840Z,56.2
2018-11-02T13:38:36.709Z,56.5
2018-11-02T13:39:38.632Z,56.5
2018-11-02T13:40:39.952Z,56.4
2018-11-02T13:41:41.297Z,56.7
2018-11-02T13:42:43.221Z,56.5
2018-11-02T13:43:44.741Z,56.6
2018-11-02T13:44:47.161Z,56.7
2018-11-02T13:45:48.511Z,56.6
2018-11-02T13:46:50.422Z,56.7
2018-11-02T13:47:52.323Z,56.6
2018-11-02T13:48:53.948Z,56.6
2018-11-02T13:49:54.999Z,56.5
2018-11-02T13:50:56.903Z,56.7
2018-11-02T13:51:58.233Z,56.8
2018-11-02T13:53:00.394Z,56.8
2018-11-02T13:54:02.339Z,56.7
2018-11-02T13:55:03.683Z,56.6
2018-11-02T13:56:05.351Z,56.8
2018-11-02T13:57:06.680Z,56.7
2018-11-02T13:58:08.585Z,56.7
2018-11-02T13:59:10.256Z,56.9
2018-11-02T14:00:11.953Z,56.9
2018-11-02T14:01:14.027Z,56.9
2018-11-02T14:02:15.883Z,57
2018-11-02T14:03:16.925Z,57.1
2018-11-02T14:04:18.549Z,56.8
2018-11-02T14:05:20.171Z,57
2018-11-02T14:06:22.303Z,56.8
2018-11-02T14:07:24.329Z,56.9
2018-11-02T14:08:28.504Z,56.9
2018-11-02T14:09:29.570Z,56.9
2018-11-02T14:10:31.201Z,57
2018-11-02T14:11:33.234Z,57
2018-11-02T14:12:35.054Z,57
2018-11-02T14:13:36.686Z,57.2
2018-11-02T14:14:38.302Z,57.1
2018-11-02T14:15:39.653Z,57.3
2018-11-02T14:16:41.278Z,57.4
2018-11-02T14:17:42.906Z,57.1
2018-11-02T14:18:44.535Z,57.2
2018-11-02T14:19:46.129Z,57.3
2018-11-02T14:20:47.826Z,57.3
2018-11-02T14:21:48.875Z,57.3
2018-11-02T14:22:50.481Z,57.2
2018-11-02T14:23:52.100Z,57.3
2018-11-02T14:24:53.728Z,57.2
2018-11-02T14:25:55.624Z,57.3
2018-11-02T14:26:57.566Z,57.2
2018-11-02T14:27:59.467Z,57.4
2018-11-02T14:29:01.112Z,57.3
2018-11-02T14:30:02.475Z,57.3
2018-11-02T14:31:03.537Z,57.3
2018-11-02T14:32:05.468Z,57.6
2018-11-02T14:33:07.375Z,57.3
2018-11-02T14:34:09.285Z,57.4
2018-11-02T14:35:11.558Z,57.3
2018-11-02T14:36:13.520Z,57.5
2018-11-02T14:37:14.845Z,57.5
2018-11-02T14:38:16.476Z,57.5
2018-11-02T14:39:18.387Z,57.5
2018-11-02T14:40:20.014Z,57.5
2018-11-02T14:41:22.066Z,57.6
2018-11-02T14:42:23.894Z,57.6
2018-11-02T14:43:25.233Z,57.4
2018-11-02T14:44:26.556Z,57.5
2018-11-02T14:45:27.876Z,57.6
2018-11-02T14:46:29.362Z,57.7
2018-11-02T14:47:30.895Z,57.6
2018-11-02T14:48:32.563Z,57.5
2018-11-02T14:49:34.806Z,57.5
2018-11-02T14:50:36.708Z,57.7
2018-11-02T14:51:38.330Z,57.4
2018-11-02T14:52:39.931Z,57.5
2018-11-02T14:53:41.329Z,57.6
2018-11-02T14:54:42.882Z,57.6
2018-11-02T14:55:44.791Z,57.7
2018-11-02T14:56:46.110Z,57.6
2018-11-02T14:57:47.802Z,57.6
2018-11-02T14:58:49.766Z,57.6
2018-11-02T14:59:51.431Z,57.7
2018-11-02T15:00:53.340Z,57.9
2018-11-02T15:01:55.590Z,57.6
2018-11-02T15:02:57.883Z,57.8
2018-11-02T15:03:59.500Z,57.5
2018-11-02T15:05:01.126Z,57.8
2018-11-02T15:06:02.454Z,57.9
2018-11-02T15:07:03.502Z,57.7
2018-11-02T15:08:05.163Z,57.9
2018-11-02T15:09:06.552Z,57.8
2018-11-02T15:10:08.447Z,57.8
2018-11-02T15:11:09.922Z,58
2018-11-02T15:12:11.625Z,57.9
2018-11-02T15:13:12.951Z,58
2018-11-02T15:14:14.573Z,57.8
2018-11-02T15:15:15.916Z,57.9
2018-11-02T15:16:17.745Z,58.1
2018-11-02T15:17:19.341Z,57.9
2018-11-02T15:18:20.973Z,57.9
2018-11-02T15:19:22.313Z,57.7
2018-11-02T15:20:23.956Z,57.7
2018-11-02T15:21:25.584Z,57.6
2018-11-02T15:22:27.489Z,57.8
2018-11-02T15:23:29.162Z,57.9
2018-11-02T15:24:30.787Z,58
2018-11-02T15:25:32.412Z,58
2018-11-02T15:26:34.126Z,57.9
2018-11-02T15:27:36.476Z,57.8
2018-11-02T15:28:38.348Z,57.7
2018-11-02T15:29:40.131Z,58.1
2018-11-02T15:30:41.545Z,57.7
2018-11-02T15:31:43.443Z,58.2
2018-11-02T15:32:44.779Z,57.9
2018-11-02T15:33:46.406Z,57.9
2018-11-02T15:34:48.327Z,58.2
2018-11-02T15:35:49.677Z,58.2
2018-11-02T15:36:50.997Z,58.3
2018-11-02T15:37:52.347Z,58.1
2018-11-02T15:38:53.968Z,58
2018-11-02T15:39:55.865Z,58.2
2018-11-02T15:40:57.786Z,58.2
2018-11-02T15:41:59.820Z,58.3
2018-11-02T15:43:01.774Z,58.1
2018-11-02T15:44:04.102Z,58.1
2018-11-02T15:45:05.871Z,58.1
2018-11-02T15:46:07.195Z,58.2
2018-11-02T15:47:08.819Z,58
2018-11-02T15:48:10.445Z,58
2018-11-02T15:49:12.046Z,58.2
2018-11-02T15:50:13.962Z,58.2
2018-11-02T15:51:15.871Z,58.1
2018-11-02T15:52:17.193Z,58
2018-11-02T15:53:19.349Z,58.3
2018-11-02T15:54:21.203Z,58.4
2018-11-02T15:55:23.098Z,58.2
2018-11-02T15:56:25.288Z,58.3
2018-11-02T15:57:27.293Z,58.3
2018-11-02T15:58:28.639Z,58.1
2018-11-02T15:59:30.270Z,58.2
2018-11-02T16:00:32.379Z,58.1
2018-11-02T16:01:34.580Z,58.2
2018-11-02T16:02:36.223Z,58.1
2018-11-02T16:03:37.963Z,58.1
2018-11-02T16:04:39.868Z,58.1
2018-11-02T16:05:41.217Z,58.2
2018-11-02T16:06:42.631Z,58.1
2018-11-02T16:07:44.081Z,58.1
2018-11-02T16:08:45.683Z,58.1
2018-11-02T16:09:47.603Z,58.3
2018-11-02T16:10:49.577Z,58
2018-11-02T16:11:50.902Z,58.1
2018-11-02T16:12:52.498Z,58.2
2018-11-02T16:13:54.124Z,57.8
2018-11-02T16:14:56.024Z,57.7
2018-11-02T16:15:57.372Z,58.1
2018-11-02T16:16:59.279Z,58.1
2018-11-02T16:18:00.898Z,58.3
2018-11-02T16:19:02.494Z,57.9
2018-11-02T16:20:04.276Z,58.1
2018-11-02T16:21:05.661Z,58.1
2018-11-02T16:22:07.471Z,58.1
2018-11-02T16:23:08.792Z,58.1
2018-11-02T16:24:10.753Z,57.9
2018-11-02T16:25:12.677Z,58.1
2018-11-02T16:26:14.287Z,58
2018-11-02T16:27:16.203Z,58.1
2018-11-02T16:28:17.547Z,58
2018-11-02T16:29:19.361Z,58
2018-11-02T16:30:21.221Z,58
2018-11-02T16:31:22.836Z,58.2
2018-11-02T16:32:24.490Z,57.8
2018-11-02T16:33:26.132Z,58.3
2018-11-02T16:34:27.751Z,57.8
2018-11-02T16:35:29.092Z,57.8
2018-11-02T16:36:31.248Z,58.1
2018-11-02T16:37:33.558Z,58.1
2018-11-02T16:38:35.465Z,58
2018-11-02T16:39:37.373Z,57.9
2018-11-02T16:40:39.270Z,57.9
2018-11-02T16:41:40.888Z,57.9
2018-11-02T16:42:42.507Z,57.8
2018-11-02T16:43:44.090Z,57.8
2018-11-02T16:44:46.897Z,57.7
2018-11-02T16:45:49.065Z,57.6
2018-11-02T16:46:51.122Z,57.6
2018-11-02T16:47:52.859Z,57.8
2018-11-02T16:48:54.976Z,57.7
2018-11-02T16:49:56.897Z,57.6
2018-11-02T16:50:59.124Z,57.6
2018-11-02T16:52:01.288Z,57.7
2018-11-02T16:53:02.905Z,57.7
2018-11-02T16:54:04.529Z,57.6
2018-11-02T16:55:06.439Z,57.6
2018-11-02T16:56:07.779Z,57.7
2018-11-02T16:57:09.398Z,57.5
2018-11-02T16:58:11.294Z,57.7
2018-11-02T16:59:12.893Z,57.7
2018-11-02T17:00:14.874Z,57.7
2018-11-02T17:01:16.814Z,57.9
2018-11-02T17:02:18.723Z,57.8
2018-11-02T17:03:20.354Z,57.7
2018-11-02T17:04:22.216Z,57.8
2018-11-02T17:05:24.116Z,58.1
2018-11-02T17:06:25.441Z,58
2018-11-02T17:07:26.785Z,58
2018-11-02T17:08:28.107Z,58
2018-11-02T17:09:29.493Z,57.8
2018-11-02T17:10:31.393Z,57.9
2018-11-02T17:11:33.601Z,58
2018-11-02T17:12:35.438Z,58
2018-11-02T17:13:37.065Z,57.8
2018-11-02T17:14:38.685Z,58.1
2018-11-02T17:15:40.593Z,58
2018-11-02T17:16:42.488Z,57.7
2018-11-02T17:17:44.408Z,57.8
2018-11-02T17:18:46.294Z,58
2018-11-02T17:19:49.173Z,57.7
2018-11-02T17:20:50.790Z,57.4
2018-11-02T17:21:52.860Z,57.5
2018-11-02T17:22:54.426Z,57.5
2018-11-02T17:23:56.070Z,57.5
2018-11-02T17:24:57.696Z,57.5
2018-11-02T17:25:59.313Z,57.4
2018-11-02T17:27:01.209Z,57.5
2018-11-02T17:28:02.813Z,57.6
2018-11-02T17:29:04.197Z,57.4
2018-11-02T17:30:05.825Z,57.3
2018-11-02T17:31:07.447Z,57.3
2018-11-02T17:32:08.788Z,57.2
2018-11-02T17:33:10.845Z,57.2
2018-11-02T17:34:11.889Z,57.2
2018-11-02T17:35:13.490Z,57.1
2018-11-02T17:36:15.155Z,57.1
2018-11-02T17:37:16.877Z,56.8
2018-11-02T17:38:18.499Z,56.9
2018-11-02T17:39:20.403Z,56.8
2018-11-02T17:40:21.450Z,56.8
2018-11-02T17:41:22.488Z,56.6
2018-11-02T17:42:23.540Z,56.8
2018-11-02T17:43:24.854Z,56.6
2018-11-02T17:44:25.895Z,56.6
2018-11-02T17:45:28.121Z,56.6
2018-11-02T17:46:30.271Z,56.5
2018-11-02T17:47:32.042Z,56.7
2018-11-02T17:48:34.221Z,56.7
2018-11-02T17:49:35.568Z,56.6
2018-11-02T17:50:37.463Z,56.7
2018-11-02T17:51:38.507Z,56.6
2018-11-02T17:52:39.850Z,56.8
2018-11-02T17:53:41.487Z,56.8
2018-11-02T17:54:43.112Z,56.9
2018-11-02T17:55:44.729Z,56.9
2018-11-02T17:56:46.645Z,56.9
2018-11-02T17:57:48.244Z,57
2018-11-02T17:58:50.347Z,57.1
2018-11-02T17:59:51.758Z,57.1
2018-11-02T18:00:54.048Z,57.2
2018-11-02T18:01:55.645Z,57
2018-11-02T18:02:57.244Z,57.2
2018-11-02T18:03:58.845Z,57.1
2018-11-02T18:05:00.462Z,57.1
2018-11-02T18:06:02.097Z,57.1
2018-11-02T18:07:04.397Z,57.2
2018-11-02T18:08:06.135Z,57.1
2018-11-02T18:09:07.904Z,57.2
2018-11-02T18:10:09.544Z,57.5
2018-11-02T18:11:11.169Z,57.5
2018-11-02T18:12:12.902Z,57.5
2018-11-02T18:13:15.046Z,57.6
2018-11-02T18:14:16.392Z,57.6
2018-11-02T18:15:18.123Z,57.6
2018-11-02T18:16:19.441Z,57.6
2018-11-02T18:17:21.066Z,57.7
2018-11-02T18:18:22.670Z,57.6
2018-11-02T18:19:24.330Z,57.7
2018-11-02T18:20:25.660Z,57.9
2018-11-02T18:21:27.013Z,57.8
2018-11-02T18:22:28.633Z,57.7
2018-11-02T18:23:30.254Z,57.7
2018-11-02T18:24:32.102Z,57.9
2018-11-02T18:25:34.020Z,57.7
2018-11-02T18:26:35.901Z,57.8
2018-11-02T18:27:38.251Z,57.8
2018-11-02T18:28:40.518Z,57.8
2018-11-02T18:29:42.140Z,57.9
2018-11-02T18:30:44.041Z,57.8
2018-11-02T18:31:45.938Z,57.9
2018-11-02T18:32:47.843Z,57.6
2018-11-02T18:33:49.475Z,57.6
2018-11-02T18:34:51.845Z,57.7
2018-11-02T18:35:53.951Z,57.9
2018-11-02T18:36:55.578Z,57.7
2018-11-02T18:37:57.179Z,57.7
2018-11-02T18:38:59.077Z,57.6
2018-11-02T18:40:01.015Z,57.6
2018-11-02T18:41:02.677Z,57.7
2018-11-02T18:42:04.246Z,57.4
2018-11-02T18:43:05.916Z,57.4
2018-11-02T18:44:07.831Z,57.7
2018-11-02T18:45:09.450Z,57.7
2018-11-02T18:46:11.350Z,57.7
2018-11-02T18:47:12.991Z,57.7
2018-11-02T18:48:15.284Z,57.6
2018-11-02T18:49:16.690Z,57.8
2018-11-02T18:50:18.312Z,57.7
2018-11-02T18:51:20.280Z,57.7
2018-11-02T18:52:22.179Z,57.7
2018-11-02T18:53:24.095Z,57.7
2018-11-02T18:54:25.992Z,57.7
2018-11-02T18:55:27.617Z,57.7
2018-11-02T18:56:29.777Z,57.7
2018-11-02T18:57:31.682Z,57.6
2018-11-02T18:58:33.303Z,57.7
2018-11-02T18:59:34.923Z,57.7
2018-11-02T19:00:36.818Z,57.7
2018-11-02T19:01:38.503Z,57.5
2018-11-02T19:02:40.139Z,57.5
2018-11-02T19:03:41.479Z,57.6
2018-11-02T19:04:43.369Z,57.6
2018-11-02T19:05:45.236Z,57.7
2018-11-02T19:06:47.515Z,57.7
2018-11-02T19:07:48.858Z,57.6
2018-11-02T19:08:50.476Z,57.6
2018-11-02T19:09:52.976Z,57.6
2018-11-02T19:10:54.317Z,57.7
2018-11-02T19:11:55.644Z,57.5
2018-11-02T19:12:57.296Z,57.4
2018-11-02T19:13:59.201Z,57.8
2018-11-02T19:15:01.101Z,57.7
2018-11-02T19:16:02.425Z,57.7
2018-11-02T19:17:03.746Z,57.8
2018-11-02T19:18:05.381Z,57.6
2018-11-02T19:19:06.422Z,57.6
2018-11-02T19:20:08.498Z,57.9
2018-11-02T19:21:09.877Z,57.7
2018-11-02T19:22:11.422Z,57.8
2018-11-02T19:23:13.034Z,57.8
2018-11-02T19:24:14.358Z,57.7
2018-11-02T19:25:15.981Z,57.7
2018-11-02T19:26:17.890Z,57.6
2018-11-02T19:27:19.297Z,57.8
2018-11-02T19:28:20.649Z,57.6
2018-11-02T19:29:22.255Z,57.7
2018-11-02T19:30:23.910Z,57.8
2018-11-02T19:31:25.817Z,57.7
2018-11-02T19:32:27.729Z,57.8
2018-11-02T19:33:29.349Z,57.7
2018-11-02T19:34:31.766Z,57.7
2018-11-02T19:35:34.399Z,57.5
2018-11-02T19:36:36.645Z,57.6
2018-11-02T19:37:38.942Z,57.6
2018-11-02T19:38:40.761Z,57.6
2018-11-02T19:39:42.642Z,57.7
2018-11-02T19:40:43.992Z,57.5
2018-11-02T19:41:45.891Z,57.5
2018-11-02T19:42:47.794Z,57.4
2018-11-02T19:43:49.747Z,57.6
2018-11-02T19:44:51.342Z,57.5
2018-11-02T19:45:53.378Z,57.6
2018-11-02T19:46:55.496Z,57.5
2018-11-02T19:47:57.396Z,57.5
2018-11-02T19:48:59.595Z,57.4
2018-11-02T19:50:01.493Z,57.3
2018-11-02T19:51:02.930Z,57.6
2018-11-02T19:52:05.346Z,57.5
2018-11-02T19:53:06.970Z,57.5
2018-11-02T19:54:08.593Z,57.5
2018-11-02T19:55:10.339Z,57.5
2018-11-02T19:56:12.572Z,57.4
2018-11-02T19:57:13.918Z,57.4
2018-11-02T19:58:15.592Z,57.3
2018-11-02T19:59:17.228Z,57.3
2018-11-02T20:00:19.133Z,57.4
2018-11-02T20:01:20.755Z,57.3
2018-11-02T20:02:22.123Z,57.6
2018-11-02T20:03:23.757Z,57.4
2018-11-02T20:04:25.583Z,57.5
2018-11-02T20:05:26.627Z,57.5
2018-11-02T20:06:28.250Z,57.3
2018-11-02T20:07:29.873Z,57.5
2018-11-02T20:08:31.503Z,57.4
2018-11-02T20:09:33.193Z,57.5
2018-11-02T20:10:35.675Z,57.4
2018-11-02T20:11:36.994Z,57.5
2018-11-02T20:12:38.614Z,57.5
2018-11-02T20:13:40.237Z,57.5
2018-11-02T20:14:42.149Z,57.4
2018-11-02T20:15:43.768Z,57.4
2018-11-02T20:16:45.673Z,57.6
2018-11-02T20:17:47.758Z,57.4
2018-11-02T20:18:49.813Z,57.4
2018-11-02T20:19:51.519Z,57.3
2018-11-02T20:20:53.136Z,57.5
2018-11-02T20:21:54.757Z,57.3
2018-11-02T20:22:56.657Z,57.4
2018-11-02T20:23:58.556Z,57.4
2018-11-02T20:25:00.155Z,57.2
2018-11-02T20:26:01.846Z,57.3
2018-11-02T20:27:03.420Z,57.2
2018-11-02T20:28:05.043Z,57.3
2018-11-02T20:29:06.105Z,57.5
2018-11-02T20:30:07.727Z,57.5
2018-11-02T20:31:09.137Z,57.4
2018-11-02T20:32:11.423Z,57.8
2018-11-02T20:33:13.837Z,57.4
2018-11-02T20:34:15.432Z,57.3
2018-11-02T20:35:17.331Z,57.5
2018-11-02T20:36:18.981Z,57.5
2018-11-02T20:37:20.889Z,57.5
2018-11-02T20:38:22.490Z,57.6
2018-11-02T20:39:24.249Z,57.5
2018-11-02T20:40:26.352Z,57.3
2018-11-02T20:41:27.956Z,57.4
2018-11-02T20:42:29.588Z,57.4
2018-11-02T20:43:31.497Z,57.4
2018-11-02T20:44:33.396Z,57.2
2018-11-02T20:45:34.715Z,57.5
2018-11-02T20:46:36.494Z,57.4
2018-11-02T20:47:38.680Z,57.5
2018-11-02T20:48:40.671Z,57.5
2018-11-02T20:49:42.421Z,57.5
2018-11-02T20:50:44.314Z,57.5
2018-11-02T20:51:45.908Z,57.5
2018-11-02T20:52:47.506Z,57.5
2018-11-02T20:53:49.416Z,57.5
2018-11-02T20:54:51.020Z,57.4
2018-11-02T20:55:52.969Z,57.5
2018-11-02T20:56:54.596Z,57.5
2018-11-02T20:57:55.917Z,57.4
2018-11-02T20:58:57.827Z,57.5
2018-11-02T20:59:59.146Z,57.5
2018-11-02T21:01:01.350Z,57.3
2018-11-02T21:02:03.006Z,57.3
2018-11-02T21:03:04.048Z,57.2
2018-11-02T21:04:05.669Z,57.4
2018-11-02T21:05:07.300Z,57.2
2018-11-02T21:06:08.922Z,57.3
2018-11-02T21:07:10.957Z,57.4
2018-11-02T21:08:13.606Z,57.4
2018-11-02T21:09:15.983Z,57.4
2018-11-02T21:10:19.632Z,57.4
2018-11-02T21:11:21.666Z,57.4
2018-11-02T21:12:23.321Z,57.4
2018-11-02T21:13:25.219Z,57.4
2018-11-02T21:14:27.024Z,57.4
2018-11-02T21:15:29.447Z,57.5
2018-11-02T21:16:31.447Z,57.5
2018-11-02T21:17:33.153Z,57.4
2018-11-02T21:18:35.051Z,57.5
2018-11-02T21:19:36.688Z,57.5
2018-11-02T21:20:38.584Z,57.4
2018-11-02T21:21:40.528Z,57.2
2018-11-02T21:22:42.428Z,57.5
2018-11-02T21:23:43.777Z,57.5
2018-11-02T21:24:45.462Z,57.5
2018-11-02T21:25:47.397Z,57.5
2018-11-02T21:26:48.745Z,57.4
2018-11-02T21:27:50.371Z,57.3
2018-11-02T21:28:52.276Z,57.2
2018-11-02T21:29:54.495Z,57.2
2018-11-02T21:30:57.115Z,57.4
2018-11-02T21:31:58.446Z,57.1
2018-11-02T21:33:00.348Z,57.6
2018-11-02T21:34:01.728Z,57.3
2018-11-02T21:35:03.057Z,57.5
2018-11-02T21:36:04.124Z,57.4
2018-11-02T21:37:05.781Z,57.4
2018-11-02T21:38:07.176Z,57.4
2018-11-02T21:39:08.903Z,57.5
2018-11-02T21:40:10.225Z,57.6
2018-11-02T21:41:12.130Z,57.4
2018-11-02T21:42:13.759Z,57.6
2018-11-02T21:43:16.409Z,57.2
2018-11-02T21:44:17.451Z,57.4
2018-11-02T21:45:19.062Z,57.4
2018-11-02T21:46:20.970Z,57.3
2018-11-02T21:47:22.590Z,57.3
2018-11-02T21:48:24.206Z,57.5
2018-11-02T21:49:24.969Z,57.5
2018-11-02T21:50:26.592Z,57.5
2018-11-02T21:51:28.201Z,57.3
2018-11-02T21:52:30.129Z,57.4
2018-11-02T21:53:31.854Z,57.4
2018-11-02T21:54:33.621Z,57.5
2018-11-02T21:55:35.239Z,57.4
2018-11-02T21:56:36.654Z,57.5
2018-11-02T21:57:39.113Z,57.4
2018-11-02T21:58:40.584Z,57.5
2018-11-02T21:59:42.893Z,57.5
2018-11-02T22:00:44.791Z,57.6
2018-11-02T22:01:45.557Z,57.2
2018-11-02T22:02:47.472Z,57.4
2018-11-02T22:03:49.387Z,57.2
2018-11-02T22:04:51.010Z,57.3
2018-11-02T22:05:52.796Z,57.3
2018-11-02T22:06:54.607Z,57.3
2018-11-02T22:07:56.534Z,57.1
2018-11-02T22:08:58.192Z,57.2
2018-11-02T22:09:59.524Z,57.2
2018-11-02T22:11:02.274Z,57.2
2018-11-02T22:12:03.351Z,57
2018-11-02T22:13:05.319Z,57.4
2018-11-02T22:14:07.255Z,57.2
2018-11-02T22:15:08.879Z,57.2
2018-11-02T22:16:10.860Z,57
2018-11-02T22:17:12.477Z,57.1
2018-11-02T22:18:14.391Z,57.2
2018-11-02T22:19:15.772Z,57.2
2018-11-02T22:20:17.616Z,57.2
2018-11-02T22:21:19.550Z,56.9
2018-11-02T22:22:21.172Z,56.9
2018-11-02T22:23:22.815Z,57.2
2018-11-02T22:24:25.567Z,57.1
2018-11-02T22:25:26.881Z,57.1
2018-11-02T22:26:28.497Z,57
2018-11-02T22:27:29.815Z,57
2018-11-02T22:28:31.164Z,56.9
2018-11-02T22:29:32.487Z,57.1
2018-11-02T22:30:34.104Z,57.1
2018-11-02T22:31:35.722Z,57.1
2018-11-02T22:32:36.769Z,56.9
2018-11-02T22:33:38.664Z,56.8
2018-11-02T22:34:40.004Z,56.9
2018-11-02T22:35:41.604Z,56.8
2018-11-02T22:36:43.462Z,56.8
2018-11-02T22:37:46.270Z,56.8
2018-11-02T22:38:47.613Z,56.8
2018-11-02T22:39:49.514Z,56.9
2018-11-02T22:40:51.412Z,56.9
2018-11-02T22:41:53.034Z,56.9
2018-11-02T22:42:54.354Z,56.8
2018-11-02T22:43:55.971Z,56.9
2018-11-02T22:44:57.315Z,56.8
2018-11-02T22:45:59.217Z,56.7
2018-11-02T22:47:00.832Z,56.7
2018-11-02T22:48:02.487Z,56.7
2018-11-02T22:49:03.527Z,56.7
2018-11-02T22:50:07.114Z,56.6
2018-11-02T22:51:08.436Z,56.7
2018-11-02T22:52:10.335Z,56.7
2018-11-02T22:53:11.372Z,56.7
2018-11-02T22:54:13.049Z,56.6
2018-11-02T22:55:15.543Z,56.5
2018-11-02T22:56:17.163Z,56.5
2018-11-02T22:57:19.110Z,56.5
2018-11-02T22:58:21.005Z,56.4
2018-11-02T22:59:22.347Z,56.5
2018-11-02T23:00:23.696Z,56.6
2018-11-02T23:01:25.660Z,56.5
2018-11-02T23:02:26.700Z,56.4
2018-11-02T23:03:28.239Z,56.4
2018-11-02T23:04:30.927Z,56.3
2018-11-02T23:05:32.917Z,56.2
2018-11-02T23:06:34.683Z,56.3
2018-11-02T23:07:36.362Z,56.4
2018-11-02T23:08:38.087Z,56.3
2018-11-02T23:09:39.505Z,56.3
2018-11-02T23:10:41.412Z,56.3
2018-11-02T23:11:43.045Z,56.3
2018-11-02T23:12:44.652Z,56.4
2018-11-02T23:13:46.269Z,56.3
2018-11-02T23:14:47.891Z,56.3
2018-11-02T23:15:49.700Z,56.2
2018-11-02T23:16:51.808Z,56.2
2018-11-02T23:17:54.331Z,56.2
2018-11-02T23:18:56.236Z,56.1
2018-11-02T23:19:57.856Z,56.1
2018-11-02T23:20:59.748Z,56.1
2018-11-02T23:22:01.382Z,56.1
2018-11-02T23:23:02.428Z,56.1
2018-11-02T23:24:03.769Z,55.9
2018-11-02T23:25:05.085Z,55.8
2018-11-02T23:26:06.703Z,56.1
2018-11-02T23:27:08.337Z,55.7
2018-11-02T23:28:09.967Z,55.8
2018-11-02T23:29:11.312Z,56
2018-11-02T23:30:14.454Z,55.7
2018-11-02T23:31:16.931Z,56
2018-11-02T23:32:18.828Z,55.8
2018-11-02T23:33:20.834Z,55.6
2018-11-02T23:34:22.457Z,55.9
2018-11-02T23:35:23.806Z,55.7
2018-11-02T23:36:25.400Z,55.5
2018-11-02T23:37:27.018Z,55.6
2018-11-02T23:38:28.355Z,55.6
2018-11-02T23:39:29.977Z,55.6
2018-11-02T23:40:31.576Z,55.5
2018-11-02T23:41:32.661Z,55.3
2018-11-02T23:42:34.273Z,55.2
2018-11-02T23:43:35.909Z,55.2
2018-11-02T23:44:37.912Z,55.6
2018-11-02T23:45:39.917Z,55.2
2018-11-02T23:46:41.238Z,55.1
2018-11-02T23:47:42.853Z,55.2
2018-11-02T23:48:44.749Z,55.3
2018-11-02T23:49:46.082Z,55.2
2018-11-02T23:50:48.000Z,55.2
2018-11-02T23:51:49.624Z,55.2
2018-11-02T23:52:50.954Z,55.2
2018-11-02T23:53:52.571Z,55.2
2018-11-02T23:54:54.664Z,55.2
2018-11-02T23:55:56.761Z,55.2
2018-11-02T23:56:58.636Z,54.9
2018-11-02T23:58:00.042Z,54.9
2018-11-02T23:59:02.276Z,55.2
